Time;durP1;ratioP1;P1;durP2;ratioP2;P2;SDS_P1;SDS_P2;PMS_P1;PMS_P2;Temp;Humidity;BMP_temperature;BMP_pressure;BME280_temperature;BME280_humidity;BME280_pressure;Samples;Min_cycle;Max_cycle;Signal;HPM_P1;HPM_P2
2021/12/20 00:00:58;;;;;;;36.60;23.67;;;7.70;99.90;;;;;;5010073;28;20034;-59
2021/12/20 00:03:24;;;;;;;36.78;23.60;;;7.70;99.90;;;;;;5010658;28;20113;-59
2021/12/20 00:05:50;;;;;;;32.55;23.35;;;7.70;99.90;;;;;;5010164;28;20033;-59
2021/12/20 00:08:16;;;;;;;36.45;23.77;;;7.70;99.90;;;;;;5010138;28;20037;-59
2021/12/20 00:10:41;;;;;;;40.95;25.60;;;7.70;99.90;;;;;;5010430;28;20033;-59
2021/12/20 00:13:07;;;;;;;39.63;25.38;;;7.70;99.90;;;;;;5010172;28;20100;-59
2021/12/20 00:15:33;;;;;;;37.85;23.52;;;7.70;99.90;;;;;;5010166;28;20025;-59
2021/12/20 00:17:58;;;;;;;39.65;23.85;;;7.60;99.90;;;;;;5010081;28;20586;-59
2021/12/20 00:20:24;;;;;;;34.58;22.65;;;7.60;99.90;;;;;;5010062;28;20026;-59
2021/12/20 00:22:50;;;;;;;48.08;25.45;;;7.60;99.90;;;;;;5010131;28;20029;-58
2021/12/20 00:25:16;;;;;;;42.95;25.85;;;7.70;99.90;;;;;;5010283;28;20530;-59
2021/12/20 00:27:41;;;;;;;42.78;25.50;;;7.80;99.90;;;;;;5009974;28;20818;-59
2021/12/20 00:30:09;;;;;;;42.00;25.35;;;7.90;99.90;;;;;;5041834;28;20057;-59
2021/12/20 00:32:35;;;;;;;39.95;23.83;;;8.00;99.90;;;;;;5009686;28;20057;-59
2021/12/20 00:35:01;;;;;;;38.03;25.60;;;7.90;99.90;;;;;;5010152;28;20030;-59
2021/12/20 00:40:23;;;;;;;43.30;25.08;;;8.00;99.90;;;;;;5009897;28;20124;-59
2021/12/20 00:42:54;;;;;;;39.38;22.38;;;8.00;99.90;;;;;;5013270;28;20632;-59
2021/12/20 00:45:23;;;;;;;34.13;21.73;;;7.90;99.90;;;;;;5014274;28;20018;-59
2021/12/20 00:47:48;;;;;;;38.90;21.15;;;7.70;99.90;;;;;;5013946;28;20030;-59
2021/12/20 00:50:16;;;;;;;29.80;19.58;;;7.70;99.90;;;;;;5028694;28;20029;-59
2021/12/20 00:52:42;;;;;;;35.13;20.65;;;7.60;99.90;;;;;;5013566;28;20030;-59
2021/12/20 00:55:09;;;;;;;34.40;20.90;;;7.70;99.90;;;;;;5013891;28;20387;-59
2021/12/20 00:57:35;;;;;;;38.22;22.20;;;7.70;99.90;;;;;;5013605;28;20305;-59
2021/12/20 01:00:03;;;;;;;34.10;20.52;;;7.60;99.90;;;;;;5013678;28;20057;-59
2021/12/20 01:02:29;;;;;;;36.30;20.50;;;7.60;99.90;;;;;;5013326;28;20445;-59
2021/12/20 01:04:54;;;;;;;31.77;21.45;;;7.60;99.90;;;;;;5013721;28;20030;-59
2021/12/20 01:07:20;;;;;;;35.80;22.52;;;7.60;99.90;;;;;;5013219;28;20054;-59
2021/12/20 01:09:45;;;;;;;32.42;21.65;;;7.60;99.90;;;;;;5013317;28;20103;-59
2021/12/20 01:12:18;;;;;;;33.72;21.63;;;7.60;99.90;;;;;;5013422;28;20026;-59
2021/12/20 01:14:44;;;;;;;32.40;20.40;;;7.60;99.90;;;;;;5013320;28;20360;-59
2021/12/20 01:17:10;;;;;;;36.20;20.70;;;7.70;99.90;;;;;;5012981;28;20030;-59
2021/12/20 01:19:37;;;;;;;37.13;21.23;;;7.60;99.90;;;;;;5013193;28;20129;-59
2021/12/20 01:22:04;;;;;;;36.45;21.27;;;7.60;99.90;;;;;;5028183;28;20030;-59
2021/12/20 01:24:31;;;;;;;35.15;20.75;;;7.70;99.90;;;;;;5012724;28;20136;-59
2021/12/20 01:26:57;;;;;;;32.33;20.83;;;7.60;99.90;;;;;;5013007;28;20041;-59
2021/12/20 01:29:23;;;;;;;31.42;19.73;;;7.70;99.90;;;;;;5012732;28;20064;-59
2021/12/20 01:31:49;;;;;;;34.58;20.35;;;7.60;99.90;;;;;;5013127;28;20072;-59
2021/12/20 01:34:15;;;;;;;29.27;19.48;;;7.70;99.90;;;;;;5013307;28;20022;-59
2021/12/20 01:36:41;;;;;;;31.25;19.35;;;7.70;99.90;;;;;;5012653;28;20025;-60
2021/12/20 01:39:07;;;;;;;36.05;19.33;;;7.60;99.90;;;;;;5012941;28;20034;-59
2021/12/20 01:41:41;;;;;;;29.38;18.73;;;7.60;99.90;;;;;;5013017;28;20065;-59
2021/12/20 01:44:07;;;;;;;26.80;17.98;;;7.60;99.90;;;;;;5028110;28;20026;-59
2021/12/20 01:46:33;;;;;;;29.30;17.38;;;7.60;99.90;;;;;;5012732;28;20026;-59
2021/12/20 01:49:00;;;;;;;33.00;16.83;;;7.60;99.90;;;;;;5012474;28;20554;-59
2021/12/20 01:51:44;;;;;;;28.77;16.85;;;7.60;99.90;;;;;;5012436;28;20045;-59
2021/12/20 01:54:10;;;;;;;31.88;16.95;;;7.50;99.90;;;;;;5012586;28;20028;-59
2021/12/20 01:56:39;;;;;;;32.65;17.85;;;7.50;99.90;;;;;;5012554;28;20026;-59
2021/12/20 01:59:06;;;;;;;29.27;17.70;;;7.50;99.90;;;;;;5012254;28;20030;-59
2021/12/20 02:01:32;;;;;;;32.38;18.05;;;7.50;99.90;;;;;;5012490;28;20030;-59
2021/12/20 02:04:01;;;;;;;32.03;18.45;;;7.50;99.90;;;;;;5011160;28;20121;-59
2021/12/20 02:08:56;;;;;;;26.70;17.42;;;7.50;99.90;;;;;;5012519;28;20026;-59
2021/12/20 02:11:22;;;;;;;33.88;18.15;;;7.50;99.90;;;;;;5012637;28;20018;-59
2021/12/20 02:13:48;;;;;;;34.45;18.67;;;7.40;99.90;;;;;;5012335;28;20072;-59
2021/12/20 02:16:14;;;;;;;34.95;18.35;;;7.40;99.90;;;;;;5012003;28;20057;-59
2021/12/20 02:18:40;;;;;;;33.97;19.05;;;7.40;99.90;;;;;;5011827;28;20030;-59
2021/12/20 02:21:06;;;;;;;37.42;19.42;;;7.40;99.90;;;;;;5011816;28;20026;-59
2021/12/20 02:23:32;;;;;;;34.25;19.50;;;7.50;99.90;;;;;;5012351;28;20129;-59
2021/12/20 02:26:00;;;;;;;29.70;19.52;;;7.40;99.90;;;;;;5011571;28;20499;-59
2021/12/20 02:28:28;;;;;;;37.22;19.63;;;7.50;99.90;;;;;;5026979;28;20108;-59
2021/12/20 02:37:03;;;;;;;35.10;18.75;;;7.40;99.90;;;;;;5011787;28;20056;-59
2021/12/20 02:39:29;;;;;;;32.22;19.05;;;7.40;99.90;;;;;;5011462;28;20025;-59
2021/12/20 02:41:55;;;;;;;24.98;17.20;;;7.30;99.90;;;;;;5011504;28;20026;-59
2021/12/20 02:44:25;;;;;;;32.80;17.98;;;7.30;99.90;;;;;;5011750;28;20438;-59
2021/12/20 02:47:04;;;;;;;33.00;17.60;;;7.30;99.90;;;;;;5026649;28;20026;-59
2021/12/20 02:49:30;;;;;;;29.27;17.90;;;7.30;99.90;;;;;;5011531;28;20081;-59
2021/12/20 02:52:06;;;;;;;29.88;19.15;;;7.30;99.90;;;;;;5011292;28;20104;-59
2021/12/20 02:54:33;;;;;;;30.63;17.73;;;7.40;99.90;;;;;;5011390;28;20398;-59
2021/12/20 02:56:58;;;;;;;36.55;18.42;;;7.40;99.90;;;;;;5011337;28;20082;-59
2021/12/20 02:59:24;;;;;;;35.20;18.35;;;7.40;99.90;;;;;;5011952;28;20450;-59
2021/12/20 03:01:54;;;;;;;31.70;17.60;;;7.40;99.90;;;;;;5011172;28;20022;-58
2021/12/20 03:04:20;;;;;;;31.00;17.65;;;7.40;99.90;;;;;;5010738;28;20057;-59
2021/12/20 03:06:53;;;;;;;30.23;17.67;;;7.40;99.90;;;;;;5011543;28;20468;-59
2021/12/20 03:09:22;;;;;;;31.33;17.73;;;7.30;99.90;;;;;;5010940;28;20038;-59
2021/12/20 03:11:55;;;;;;;33.58;18.35;;;7.40;99.90;;;;;;5011005;28;20030;-59
2021/12/20 03:14:35;;;;;;;39.28;18.73;;;7.40;99.90;;;;;;5011483;28;20455;-59
2021/12/20 03:17:02;;;;;;;35.95;19.38;;;7.40;99.90;;;;;;5010774;28;20125;-59
2021/12/20 03:19:28;;;;;;;29.90;18.40;;;7.40;99.90;;;;;;5025845;28;20026;-59
2021/12/20 03:21:55;;;;;;;34.38;18.98;;;7.40;99.90;;;;;;5011047;28;20037;-59
2021/12/20 03:24:20;;;;;;;28.17;18.48;;;7.40;99.90;;;;;;5011135;28;20030;-59
2021/12/20 03:26:46;;;;;;;31.77;18.45;;;7.40;99.90;;;;;;5010775;28;20486;-59
2021/12/20 03:29:12;;;;;;;34.30;19.70;;;7.40;99.90;;;;;;5010564;28;20391;-59
2021/12/20 03:31:38;;;;;;;29.20;17.70;;;7.40;99.90;;;;;;5010678;28;20093;-58
2021/12/20 03:34:05;;;;;;;31.30;19.77;;;7.40;99.90;;;;;;5011038;28;20415;-59
2021/12/20 03:36:32;;;;;;;35.20;20.23;;;7.40;99.90;;;;;;5010614;28;20080;-59
2021/12/20 03:38:57;;;;;;;31.23;20.42;;;7.40;99.90;;;;;;5010414;28;20022;-59
2021/12/20 03:41:23;;;;;;;32.10;19.33;;;7.40;99.90;;;;;;5010380;28;20101;-58
2021/12/20 03:43:49;;;;;;;31.90;20.17;;;7.30;99.90;;;;;;5009362;28;20033;-59
2021/12/20 03:46:15;;;;;;;37.88;20.98;;;7.30;99.90;;;;;;5010709;28;20018;-58
2021/12/20 03:48:41;;;;;;;35.08;22.60;;;7.30;99.90;;;;;;5010360;28;20018;-59
2021/12/20 03:51:07;;;;;;;37.63;23.00;;;7.30;99.90;;;;;;5010291;28;20273;-59
2021/12/20 03:53:34;;;;;;;35.35;23.23;;;7.30;99.90;;;;;;5010879;28;20022;-58
2021/12/20 03:56:01;;;;;;;49.10;24.95;;;7.50;99.90;;;;;;5009231;28;20057;-59
2021/12/20 03:58:27;;;;;;;40.13;23.92;;;7.50;99.90;;;;;;5010591;28;20534;-59
2021/12/20 04:00:58;;;;;;;38.30;23.27;;;7.40;99.90;;;;;;5010653;28;20101;-59
2021/12/20 04:03:25;;;;;;;35.38;24.13;;;7.40;99.90;;;;;;5010294;28;20026;-59
2021/12/20 04:05:51;;;;;;;41.30;23.48;;;7.30;99.90;;;;;;5025280;28;20030;-59
2021/12/20 04:08:17;;;;;;;38.63;22.90;;;7.40;99.90;;;;;;5010401;28;20041;-59
2021/12/20 04:10:43;;;;;;;39.25;22.13;;;7.30;99.90;;;;;;5025342;28;20441;-59
2021/12/20 04:13:09;;;;;;;35.05;21.38;;;7.30;99.90;;;;;;5010597;28;20026;-58
2021/12/20 04:15:36;;;;;;;34.05;22.42;;;7.30;99.90;;;;;;5010341;28;20129;-59
2021/12/20 04:18:03;;;;;;;46.40;24.50;;;7.30;99.90;;;;;;5009974;28;20022;-59
2021/12/20 04:20:28;;;;;;;37.60;23.25;;;7.50;99.90;;;;;;5009780;28;20026;-58
2021/12/20 04:22:54;;;;;;;34.30;23.23;;;7.50;99.90;;;;;;5010039;28;20105;-59
2021/12/20 04:25:20;;;;;;;39.28;22.63;;;7.50;99.90;;;;;;5010296;28;20093;-59
2021/12/20 04:27:45;;;;;;;36.95;23.00;;;7.40;99.90;;;;;;5008942;28;20029;-59
2021/12/20 04:30:11;;;;;;;33.67;22.73;;;7.40;99.90;;;;;;5009620;28;20022;-62
2021/12/20 04:32:39;;;;;;;42.80;23.83;;;7.50;99.90;;;;;;5009888;28;20026;-59
2021/12/20 04:35:06;;;;;;;43.55;23.75;;;7.60;99.90;;;;;;5008688;28;20434;-59
2021/12/20 04:37:32;;;;;;;34.63;21.90;;;7.70;99.90;;;;;;5009941;28;20530;-59
2021/12/20 04:39:58;;;;;;;32.47;21.75;;;7.70;99.90;;;;;;5010141;28;20037;-59
2021/12/20 04:42:24;;;;;;;33.92;21.73;;;7.60;99.90;;;;;;5009972;28;20084;-59
2021/12/20 04:44:50;;;;;;;31.15;20.50;;;7.60;99.90;;;;;;5010584;28;20038;-59
2021/12/20 04:47:16;;;;;;;36.17;21.60;;;7.60;99.90;;;;;;5008753;28;20081;-59
2021/12/20 04:49:41;;;;;;;37.17;21.45;;;7.60;99.90;;;;;;5009841;28;20109;-58
2021/12/20 04:52:07;;;;;;;32.40;20.55;;;7.70;99.90;;;;;;5024916;28;20022;-62
2021/12/20 04:54:32;;;;;;;35.20;19.45;;;7.70;99.90;;;;;;5010065;28;20094;-58
2021/12/20 04:56:58;;;;;;;30.63;17.20;;;7.70;99.90;;;;;;5009743;28;20030;-59
2021/12/20 04:59:24;;;;;;;29.20;17.98;;;7.70;99.90;;;;;;5009594;28;20108;-59
2021/12/20 05:01:49;;;;;;;31.90;18.98;;;7.80;99.90;;;;;;5010099;28;20089;-58
2021/12/20 05:04:15;;;;;;;30.85;19.65;;;7.90;99.90;;;;;;5009914;28;20765;-58
2021/12/20 05:06:41;;;;;;;33.67;19.13;;;7.90;99.90;;;;;;5009826;28;20030;-59
2021/12/20 05:09:06;;;;;;;28.15;17.13;;;7.80;99.90;;;;;;5008327;28;20050;-58
2021/12/20 05:11:36;;;;;;;27.10;17.05;;;7.60;99.90;;;;;;5010053;28;20041;-58
2021/12/20 05:14:02;;;;;;;26.48;17.60;;;7.60;99.90;;;;;;5009478;28;20080;-58
2021/12/20 05:16:28;;;;;;;25.27;15.00;;;7.60;99.90;;;;;;5009613;28;20056;-58
2021/12/20 05:18:54;;;;;;;32.15;15.77;;;7.60;99.90;;;;;;5009468;28;20061;-58
2021/12/20 05:21:20;;;;;;;25.65;14.20;;;7.70;99.90;;;;;;5008207;28;20061;-58
2021/12/20 05:23:46;;;;;;;29.45;14.57;;;7.70;99.90;;;;;;5008491;28;20022;-58
2021/12/20 05:26:11;;;;;;;24.27;13.60;;;7.60;99.90;;;;;;5009331;28;20129;-59
2021/12/20 05:28:37;;;;;;;21.60;12.77;;;7.60;99.90;;;;;;5012394;28;20507;-59
2021/12/20 05:31:03;;;;;;;28.30;12.80;;;7.60;99.90;;;;;;5028415;28;20041;-58
2021/12/20 05:33:29;;;;;;;22.00;12.30;;;7.60;99.90;;;;;;5012803;28;20537;-59
2021/12/20 05:35:54;;;;;;;20.67;11.55;;;7.60;99.90;;;;;;5012981;28;20101;-58
2021/12/20 05:38:20;;;;;;;22.52;10.95;;;7.80;99.90;;;;;;5012827;28;20026;-59
2021/12/20 05:40:46;;;;;;;21.60;10.23;;;7.80;99.90;;;;;;5013039;28;20025;-58
2021/12/20 05:43:12;;;;;;;22.17;10.88;;;7.80;99.90;;;;;;5013195;28;20402;-58
2021/12/20 05:45:38;;;;;;;21.60;10.40;;;7.80;99.90;;;;;;5012839;28;20486;-58
2021/12/20 05:48:04;;;;;;;22.35;10.13;;;7.70;99.90;;;;;;5012904;28;20113;-58
2021/12/20 05:50:31;;;;;;;17.60;9.65;;;7.60;99.90;;;;;;5013001;28;20030;-58
2021/12/20 05:52:58;;;;;;;20.58;8.25;;;7.60;99.90;;;;;;5013052;28;20025;-60
2021/12/20 05:55:24;;;;;;;15.23;7.30;;;7.50;99.90;;;;;;5012928;28;20022;-58
2021/12/20 05:57:50;;;;;;;24.52;8.30;;;7.60;99.90;;;;;;5013132;28;20081;-58
2021/12/20 06:00:19;;;;;;;16.95;6.68;;;7.60;99.90;;;;;;5012801;28;20088;-58
2021/12/20 06:02:47;;;;;;;18.42;6.40;;;7.50;99.90;;;;;;5012464;28;20408;-58
2021/12/20 06:05:13;;;;;;;18.33;6.15;;;7.50;99.90;;;;;;5012963;28;20026;-60
2021/12/20 06:07:41;;;;;;;21.08;6.25;;;7.50;99.90;;;;;;5012702;28;20633;-58
2021/12/20 06:10:10;;;;;;;24.52;5.97;;;7.50;99.90;;;;;;5012391;28;20024;-58
2021/12/20 06:12:36;;;;;;;20.95;5.47;;;7.50;99.90;;;;;;5012475;28;20691;-58
2021/12/20 06:15:05;;;;;;;18.98;4.95;;;7.40;99.90;;;;;;5012824;28;20111;-59
2021/12/20 06:17:31;;;;;;;16.02;4.10;;;7.40;99.90;;;;;;5012179;28;20550;-58
2021/12/20 06:19:56;;;;;;;18.75;5.00;;;7.50;99.90;;;;;;5010822;28;20053;-58
2021/12/20 06:22:22;;;;;;;19.10;3.92;;;7.40;99.90;;;;;;5012249;28;20109;-59
2021/12/20 06:24:48;;;;;;;16.23;4.32;;;7.40;99.90;;;;;;5012386;28;20541;-58
2021/12/20 06:27:13;;;;;;;18.73;3.83;;;7.60;99.90;;;;;;5012125;28;20033;-58
2021/12/20 06:29:39;;;;;;;17.65;3.78;;;7.50;99.90;;;;;;5027228;28;20030;-58
2021/12/20 06:32:06;;;;;;;19.48;4.28;;;7.50;99.90;;;;;;5012011;28;20113;-58
2021/12/20 06:34:31;;;;;;;17.73;3.42;;;7.50;99.90;;;;;;5012361;28;20072;-58
2021/12/20 06:36:57;;;;;;;17.27;3.38;;;7.40;99.90;;;;;;5011909;28;20029;-58
2021/12/20 06:39:23;;;;;;;22.70;4.32;;;7.30;99.90;;;;;;5011009;28;20060;-58
2021/12/20 06:41:50;;;;;;;17.73;4.07;;;7.50;99.90;;;;;;5011765;28;20123;-59
2021/12/20 06:44:17;;;;;;;22.40;4.18;;;7.60;99.90;;;;;;5011993;28;20045;-58
2021/12/20 06:46:43;;;;;;;20.08;4.00;;;7.60;99.90;;;;;;5012154;28;20041;-58
2021/12/20 06:49:10;;;;;;;25.48;3.58;;;7.60;99.90;;;;;;5011814;28;20030;-58
2021/12/20 06:51:42;;;;;;;19.52;3.38;;;7.60;99.90;;;;;;5012482;28;20041;-58
2021/12/20 06:54:10;;;;;;;19.33;3.60;;;7.70;99.90;;;;;;5011851;28;20029;-58
2021/12/20 06:56:36;;;;;;;26.00;3.25;;;7.60;99.90;;;;;;5011863;28;20030;-58
2021/12/20 06:59:03;;;;;;;23.15;3.60;;;7.40;99.90;;;;;;5011316;28;20032;-58
2021/12/20 07:01:28;;;;;;;29.42;3.50;;;7.30;99.90;;;;;;5011712;28;20037;-59
2021/12/20 07:03:54;;;;;;;19.45;3.25;;;7.10;99.90;;;;;;5011820;28;20338;-58
2021/12/20 07:06:20;;;;;;;25.17;4.20;;;7.30;99.90;;;;;;5011565;28;20053;-58
2021/12/20 07:08:46;;;;;;;22.02;3.92;;;7.40;99.90;;;;;;5011649;28;20448;-58
2021/12/20 07:11:12;;;;;;;24.60;3.90;;;7.30;99.90;;;;;;5011502;28;20026;-59
2021/12/20 07:13:38;;;;;;;20.40;4.25;;;7.30;99.90;;;;;;5011539;28;20057;-58
2021/12/20 07:16:04;;;;;;;22.42;3.63;;;7.30;99.90;;;;;;5011011;28;20021;-58
2021/12/20 07:18:30;;;;;;;21.00;3.78;;;7.50;99.90;;;;;;5011117;28;20026;-58
2021/12/20 07:20:55;;;;;;;25.02;4.13;;;7.40;99.90;;;;;;5011255;28;20076;-58
2021/12/20 07:23:22;;;;;;;25.10;4.40;;;7.50;99.90;;;;;;5011141;28;20021;-58
2021/12/20 07:25:49;;;;;;;28.05;4.68;;;7.50;99.90;;;;;;5010976;28;20084;-59
2021/12/20 07:28:15;;;;;;;26.77;4.07;;;7.40;99.90;;;;;;5010898;28;20395;-58
2021/12/20 07:30:40;;;;;;;22.42;4.10;;;7.40;99.90;;;;;;5010752;28;20026;-58
2021/12/20 07:33:07;;;;;;;26.80;4.22;;;7.30;99.90;;;;;;5011112;28;20540;-58
2021/12/20 07:35:33;;;;;;;22.05;4.85;;;7.20;99.90;;;;;;5010685;28;20064;-59
2021/12/20 07:38:01;;;;;;;24.27;4.35;;;7.10;99.90;;;;;;5010799;28;20022;-58
2021/12/20 07:40:27;;;;;;;28.35;4.53;;;7.10;99.90;;;;;;5011026;28;20045;-58
2021/12/20 07:42:52;;;;;;;23.67;5.55;;;7.10;99.90;;;;;;5011024;28;20068;-59
2021/12/20 07:45:19;;;;;;;30.30;6.35;;;7.10;99.90;;;;;;5009760;28;20040;-58
2021/12/20 07:47:45;;;;;;;32.92;7.80;;;7.20;99.90;;;;;;5010482;28;20026;-58
2021/12/20 07:50:11;;;;;;;32.28;7.30;;;7.30;99.90;;;;;;5010416;28;20502;-58
2021/12/20 07:52:36;;;;;;;32.55;6.40;;;7.30;99.90;;;;;;5010545;28;20026;-58
2021/12/20 07:55:03;;;;;;;31.17;6.13;;;7.30;99.90;;;;;;5009399;28;20022;-59
2021/12/20 07:57:29;;;;;;;31.58;5.43;;;7.30;99.90;;;;;;5010267;28;20163;-58
2021/12/20 07:59:55;;;;;;;24.42;5.72;;;7.30;99.90;;;;;;5025782;28;20500;-58
2021/12/20 08:02:20;;;;;;;25.05;4.63;;;7.40;99.90;;;;;;5010333;28;20422;-58
2021/12/20 08:04:50;;;;;;;28.40;5.28;;;7.40;99.90;;;;;;5010428;28;20029;-58
2021/12/20 08:07:18;;;;;;;27.05;6.45;;;7.40;99.90;;;;;;5025069;28;20080;-58
2021/12/20 08:09:44;;;;;;;51.65;17.13;;;7.60;99.90;;;;;;5010037;28;20105;-58
2021/12/20 08:12:10;;;;;;;23.73;5.40;;;7.80;99.90;;;;;;5010439;28;20037;-58
2021/12/20 08:14:35;;;;;;;24.75;7.53;;;7.70;99.90;;;;;;5010195;28;20394;-58
2021/12/20 08:17:01;;;;;;;40.15;7.53;;;7.70;99.90;;;;;;5010308;28;20021;-58
2021/12/20 08:19:27;;;;;;;29.40;5.40;;;7.60;99.90;;;;;;5009940;28;20120;-59
2021/12/20 08:21:52;;;;;;;27.67;5.43;;;7.60;99.90;;;;;;5025149;28;20065;-58
2021/12/20 08:24:18;;;;;;;35.38;5.43;;;7.60;99.90;;;;;;5010235;28;20026;-59
2021/12/20 08:26:44;;;;;;;27.85;5.28;;;7.60;99.90;;;;;;5009657;28;20068;-59
2021/12/20 08:29:09;;;;;;;33.22;4.78;;;7.60;99.90;;;;;;5009977;28;20494;-59
2021/12/20 08:31:36;;;;;;;31.50;4.00;;;7.50;99.90;;;;;;5010270;28;20430;-59
2021/12/20 08:34:03;;;;;;;25.80;4.65;;;7.50;99.90;;;;;;5010208;28;20088;-59
2021/12/20 08:36:29;;;;;;;29.73;4.70;;;7.50;99.90;;;;;;5009819;28;20022;-59
2021/12/20 08:38:54;;;;;;;28.30;5.50;;;7.60;99.90;;;;;;5009974;28;20041;-59
2021/12/20 08:41:20;;;;;;;19.75;5.60;;;7.60;99.90;;;;;;5010194;28;20452;-59
2021/12/20 08:43:47;;;;;;;26.50;5.95;;;7.70;99.90;;;;;;5010407;28;20495;-59
2021/12/20 08:46:15;;;;;;;29.83;6.38;;;7.90;99.90;;;;;;5025664;28;20030;-59
2021/12/20 08:48:44;;;;;;;25.30;8.45;;;7.80;99.90;;;;;;5010697;28;20397;-59
2021/12/20 08:51:10;;;;;;;21.90;7.97;;;7.70;99.90;;;;;;5010035;28;20033;-59
2021/12/20 08:53:36;;;;;;;29.35;6.63;;;7.80;99.90;;;;;;5010586;28;20030;-59
2021/12/20 08:56:05;;;;;;;26.90;6.30;;;7.70;99.90;;;;;;5010040;28;20018;-59
2021/12/20 08:58:31;;;;;;;22.30;3.53;;;7.60;99.90;;;;;;5025181;28;20041;-59
2021/12/20 09:00:57;;;;;;;25.33;3.60;;;7.50;99.90;;;;;;5010398;28;20037;-59
2021/12/20 09:03:23;;;;;;;22.60;3.92;;;7.60;99.90;;;;;;5013257;28;20037;-59
2021/12/20 09:05:49;;;;;;;24.02;4.10;;;7.50;99.90;;;;;;5014174;28;20030;-59
2021/12/20 09:08:17;;;;;;;26.17;4.13;;;7.50;99.90;;;;;;5013663;28;20034;-59
2021/12/20 09:10:43;;;;;;;24.30;4.40;;;7.50;99.90;;;;;;5013558;28;20068;-59
2021/12/20 09:13:09;;;;;;;24.20;4.43;;;7.60;99.90;;;;;;5013809;28;20069;-59
2021/12/20 09:15:35;;;;;;;25.85;4.60;;;7.70;99.90;;;;;;5013538;28;20387;-59
2021/12/20 09:18:03;;;;;;;25.90;3.70;;;7.80;99.90;;;;;;5013326;28;20514;-59
2021/12/20 09:20:30;;;;;;;23.00;4.32;;;7.80;99.90;;;;;;5020863;28;20564;-59
2021/12/20 09:23:03;;;;;;;27.10;4.72;;;7.70;99.90;;;;;;5029627;28;20108;-59
2021/12/20 09:25:30;;;;;;;40.65;10.05;;;7.70;99.90;;;;;;5034110;28;20057;-58
2021/12/20 09:27:57;;;;;;;29.90;6.88;;;7.70;99.90;;;;;;5033108;28;20018;-58
2021/12/20 09:30:27;;;;;;;27.17;6.68;;;7.80;99.90;;;;;;5032757;28;20091;-59
2021/12/20 09:32:53;;;;;;;29.27;6.45;;;7.80;99.90;;;;;;5030734;28;20017;-58
2021/12/20 09:35:20;;;;;;;33.33;5.65;;;7.80;99.90;;;;;;5021884;28;20418;-58
2021/12/20 09:37:51;;;;;;;26.83;5.07;;;7.90;99.90;;;;;;5032778;28;20045;-58
2021/12/20 09:40:27;;;;;;;26.85;5.60;;;7.80;99.90;;;;;;5025524;28;20047;-59
2021/12/20 09:42:54;;;;;;;30.55;5.63;;;7.90;99.90;;;;;;5020184;28;20109;-59
2021/12/20 09:45:21;;;;;;;22.20;4.32;;;8.00;99.90;;;;;;5015341;28;20052;-59
2021/12/20 09:47:48;;;;;;;28.25;4.90;;;8.00;99.90;;;;;;5014591;28;20030;-59
2021/12/20 09:50:14;;;;;;;22.80;4.20;;;8.10;99.90;;;;;;5027467;28;20073;-59
2021/12/20 09:52:42;;;;;;;28.67;4.50;;;8.20;99.90;;;;;;5033026;28;20476;-59
2021/12/20 09:55:09;;;;;;;26.67;5.13;;;8.10;99.90;;;;;;5020928;28;20128;-59
2021/12/20 09:57:36;;;;;;;28.92;5.07;;;8.00;99.90;;;;;;5032595;28;20040;-59
2021/12/20 10:00:05;;;;;;;22.80;4.90;;;8.00;99.90;;;;;;5032306;28;20409;-59
2021/12/20 10:02:31;;;;;;;19.85;4.13;;;8.20;99.90;;;;;;5032191;28;20427;-59
2021/12/20 10:04:57;;;;;;;20.88;4.75;;;8.30;99.90;;;;;;5032477;28;20124;-59
2021/12/20 10:07:25;;;;;;;20.83;4.78;;;8.20;99.90;;;;;;5032329;28;20494;-59
2021/12/20 10:09:51;;;;;;;31.77;4.78;;;8.30;99.90;;;;;;5032011;28;20083;-59
2021/12/20 10:12:23;;;;;;;29.02;5.43;;;8.40;99.90;;;;;;5031886;28;20425;-59
2021/12/20 10:14:51;;;;;;;22.75;4.82;;;8.40;99.90;;;;;;5031928;28;20102;-59
2021/12/20 10:17:17;;;;;;;24.73;5.13;;;8.40;99.90;;;;;;5031618;28;20309;-60
2021/12/20 10:19:43;;;;;;;33.95;5.57;;;8.40;99.90;;;;;;5030478;28;20030;-59
2021/12/20 10:22:29;;;;;;;25.40;5.78;;;8.50;99.90;;;;;;5029821;28;20033;-59
2021/12/20 10:24:58;;;;;;;24.55;5.82;;;8.50;99.90;;;;;;5029562;28;20503;-59
2021/12/20 10:27:29;;;;;;;26.63;4.95;;;8.50;99.90;;;;;;5030058;28;20033;-59
2021/12/20 10:29:54;;;;;;;36.90;7.18;;;8.40;99.90;;;;;;5029592;28;20030;-59
2021/12/20 10:32:41;;;;;;;24.00;4.18;;;8.30;99.90;;;;;;5023504;28;20026;-59
2021/12/20 10:35:25;;;;;;;21.30;4.15;;;8.30;99.90;;;;;;5021394;28;20032;-59
2021/12/20 10:37:52;;;;;;;28.67;4.55;;;8.40;99.90;;;;;;5018581;28;20030;-59
2021/12/20 10:40:18;;;;;;;29.67;4.90;;;8.50;99.90;;;;;;5016131;28;20029;-59
2021/12/20 10:42:43;;;;;;;25.98;5.43;;;8.60;99.90;;;;;;5013271;28;20545;-59
2021/12/20 10:45:12;;;;;;;19.52;4.68;;;8.40;99.90;;;;;;5030645;28;20390;-59
2021/12/20 10:47:38;;;;;;;25.67;4.43;;;8.20;99.90;;;;;;5014421;28;20388;-59
2021/12/20 10:50:26;;;;;;;24.52;4.38;;;8.40;99.90;;;;;;5018955;28;20439;-59
2021/12/20 10:52:54;;;;;;;22.13;3.65;;;8.50;99.90;;;;;;5022317;28;20021;-59
2021/12/20 10:55:38;;;;;;;29.88;5.30;;;8.50;99.90;;;;;;5024963;28;20029;-59
2021/12/20 10:58:31;;;;;;;28.33;4.68;;;8.80;99.90;;;;;;5022071;28;20392;-59
2021/12/20 11:04:27;;;;;;;24.23;4.85;;;9.10;99.90;;;;;;5011049;28;20049;-59
2021/12/20 11:09:35;;;;;;;23.58;4.10;;;8.80;99.90;;;;;;5029560;28;20363;-59
2021/12/20 11:12:03;;;;;;;22.80;3.40;;;8.80;99.90;;;;;;5014576;28;20029;-59
2021/12/20 11:14:38;;;;;;;29.48;4.47;;;8.90;99.90;;;;;;5024685;28;20029;-59
2021/12/20 11:17:06;;;;;;;32.35;4.57;;;8.80;99.90;;;;;;5018775;28;20033;-59
2021/12/20 11:19:39;;;;;;;27.80;4.43;;;8.60;99.90;;;;;;5029592;28;20029;-59
2021/12/20 11:22:11;;;;;;;29.23;4.63;;;8.50;99.90;;;;;;5031065;28;20435;-59
2021/12/20 11:24:46;;;;;;;26.77;4.30;;;8.60;99.90;;;;;;5030479;28;20049;-59
2021/12/20 11:27:21;;;;;;;27.92;3.58;;;8.70;99.90;;;;;;5030821;28;20100;-59
2021/12/20 11:29:49;;;;;;;20.83;3.60;;;8.80;99.90;;;;;;5030372;28;20502;-59
2021/12/20 11:32:15;;;;;;;23.30;3.88;;;8.80;99.90;;;;;;5029183;28;20026;-59
2021/12/20 11:34:42;;;;;;;19.45;3.92;;;8.90;99.90;;;;;;5030564;28;20109;-59
2021/12/20 11:37:13;;;;;;;19.98;4.35;;;8.80;99.90;;;;;;5030453;28;20014;-59
2021/12/20 11:39:39;;;;;;;19.02;4.18;;;8.80;99.90;;;;;;5030579;28;20029;-59
2021/12/20 11:42:07;;;;;;;22.13;3.45;;;8.90;99.90;;;;;;5030380;28;20536;-59
2021/12/20 11:44:35;;;;;;;20.35;3.38;;;8.80;99.90;;;;;;5030353;28;20390;-59
2021/12/20 11:47:42;;;;;;;26.13;3.88;;;8.70;99.90;;;;;;5029940;28;20025;-59
2021/12/20 11:50:14;;;;;;;19.92;3.33;;;8.30;99.90;;;;;;5025000;28;20120;-59
2021/12/20 11:52:45;;;;;;;20.48;3.90;;;8.30;99.90;;;;;;5026359;28;20048;-59
2021/12/20 11:55:30;;;;;;;25.05;3.47;;;8.40;99.90;;;;;;5029370;28;20045;-59
2021/12/20 11:57:58;;;;;;;23.13;3.85;;;8.50;99.90;;;;;;5029988;28;20029;-59
2021/12/20 12:00:27;;;;;;;22.83;3.78;;;8.40;99.90;;;;;;5028994;28;20117;-59
2021/12/20 12:02:56;;;;;;;26.90;9.60;;;8.40;99.90;;;;;;5029859;28;20337;-59
2021/12/20 12:05:35;;;;;;;27.48;8.25;;;8.40;99.90;;;;;;5028731;28;20032;-59
2021/12/20 12:08:21;;;;;;;22.05;4.47;;;8.80;99.90;;;;;;5029825;28;20390;-59
2021/12/20 12:10:46;;;;;;;23.42;3.90;;;8.80;99.90;;;;;;5030011;28;20433;-59
2021/12/20 12:13:16;;;;;;;22.13;4.32;;;8.50;99.90;;;;;;5029869;28;20026;-58
2021/12/20 12:16:15;;;;;;;24.75;4.40;;;8.30;99.90;;;;;;5029605;28;20080;-59
2021/12/20 12:18:50;;;;;;;20.45;3.95;;;8.30;99.90;;;;;;5045508;28;20049;-59
2021/12/20 12:21:34;;;;;;;16.38;3.45;;;8.50;99.90;;;;;;5029801;28;20026;-59
2021/12/20 12:24:06;;;;;;;23.65;3.47;;;8.50;99.90;;;;;;5030117;28;20548;-59
2021/12/20 12:26:38;;;;;;;16.02;3.25;;;8.20;99.90;;;;;;5029728;28;20042;-59
2021/12/20 12:29:05;;;;;;;28.30;4.50;;;8.10;99.90;;;;;;5030266;28;20033;-59
2021/12/20 12:31:49;;;;;;;18.73;4.57;;;8.10;99.90;;;;;;5029615;28;20037;-59
2021/12/20 12:34:17;;;;;;;16.55;3.67;;;8.20;99.90;;;;;;5028709;28;20080;-59
2021/12/20 12:36:43;;;;;;;17.20;3.67;;;8.20;99.90;;;;;;5029566;28;20017;-59
2021/12/20 12:39:28;;;;;;;20.42;3.95;;;8.20;99.90;;;;;;5033119;28;20017;-59
2021/12/20 12:42:00;;;;;;;16.77;3.63;;;8.10;99.90;;;;;;5033108;28;20032;-59
2021/12/20 12:44:31;;;;;;;25.50;4.70;;;8.10;99.90;;;;;;5033452;28;20051;-59
2021/12/20 12:47:14;;;;;;;22.20;4.60;;;8.00;99.90;;;;;;5048291;28;20035;-59
2021/12/20 12:49:44;;;;;;;19.90;4.10;;;8.00;99.90;;;;;;5033017;28;20057;-59
2021/12/20 12:52:31;;;;;;;22.83;5.03;;;7.90;99.90;;;;;;5033226;28;20090;-59
2021/12/20 12:55:10;;;;;;;21.65;4.50;;;8.10;99.90;;;;;;5033693;28;20049;-59
2021/12/20 12:57:38;;;;;;;28.23;5.50;;;8.10;99.90;;;;;;5033406;28;20280;-59
2021/12/20 13:00:09;;;;;;;23.58;5.78;;;8.20;99.90;;;;;;5032992;28;20025;-59
2021/12/20 13:02:39;;;;;;;17.52;5.85;;;8.30;99.90;;;;;;5048716;28;20026;-59
2021/12/20 13:05:35;;;;;;;27.40;5.55;;;8.40;99.90;;;;;;5033280;28;20033;-59